MAPA DE AEROPUERTO

INFORMACIÓN METAR y TAF

METAR FOR LEVC
ADDS - METARS form results

(1420 UTC 23 January 2020)
Data provider http://aviationweather.gov/metar/data/
 
METAR text: LEVC 231400Z 12006KT 9999 SCT015 14/09 Q1020 NOSIG
Conditions at: LEVC (VALENCIA (CIV/MI, ES) observed 1400 UTC 23 January 2020
Temperature: 14.0°C (57°F)
Dewpoint: 9.0°C (48°F) [RH = 72%]
Pressure (altimeter): 30.12 inches Hg (1020.0 mb)
Winds: from the ESE (120 degrees) at 7 MPH (6 knots; 3.1 m/s)
Visibility: 6 or more miles (10+ km)
Ceiling: at least 12,000 feet AGL
Clouds: scattered clouds at 1500 feet AGL
Weather: no significant weather observed at this time

METAR text: LEVC 231330Z 13004KT 070V170 9999 SCT015 14/08 Q1020 NOSIG
Conditions at: LEVC (VALENCIA (CIV/MI, ES) observed 1330 UTC 23 January 2020
Temperature: 14.0°C (57°F)
Dewpoint: 8.0°C (46°F) [RH = 67%]
Pressure (altimeter): 30.12 inches Hg (1020.0 mb)
Winds: from the SE (130 degrees) at 5 MPH (4 knots; 2.1 m/s)
Visibility: 6 or more miles (10+ km)
Ceiling: at least 12,000 feet AGL
Clouds: scattered clouds at 1500 feet AGL
Weather: no significant weather observed at this time

Forecast for: LEVC (VALENCIA (CIV/MI, ES)
Text: TAF LEVC 231100Z 2312/2412 29006KT 9999 FEW020 TX15/2312Z TN04/2406Z
Forecast period: 1200 UTC 23 January 2020 to 1200 UTC 24 January 2020
Forecast type: FROM: standard forecast or significant change
Winds: from the WNW (290 degrees) at 7 MPH (6 knots; 3.1 m/s)
Visibility: 6 or more miles 10+ km)
Ceiling: at least 12,000 feet AGL
Clouds: few clouds at 2000 feet AGL
Weather: no significant weather forecast for this period
Text: BECMG 2312/2314 09008KT
Forecast period: 1200 to 1800 UTC 23 January 2020
Forecast type: BECOMING: Conditions expected to become as follows by 1400 UTC 23 January 2020
Winds: from the E (90 degrees) at 9 MPH (8 knots; 4.1 m/s)
Visibility: 6 or more miles 10+ km)
Ceiling: at least 12,000 feet AGL
Clouds: few clouds at 2000 feet AGL
Weather: no significant weather forecast for this period
Text: BECMG 2318/2320 32005KT
Forecast period: 1800 UTC 23 January 2020 to 1200 UTC 24 January 2020
Forecast type: BECOMING: Conditions expected to become as follows by 2000 UTC 23 January 2020
Winds: from the NW (320 degrees) at 6 MPH (5 knots; 2.6 m/s)
Visibility: 6 or more miles 10+ km)
Ceiling: at least 12,000 feet AGL
Clouds: few clouds at 2000 feet AGL
Weather: no significant weather forecast for this period
Text: PROB40
Forecast period: 2200 UTC 23 January 2020 to 0800 UTC 24 January 2020
Forecast type: TEMPORARY: The following changes expected for less than half the time period
Visibility: 1.86 miles (2.99 km)
Ceiling: 900 feet AGL
Clouds: broken clouds at 900 feet AGL
Weather: BR  (mist)